Time;durP1;ratioP1;P1;durP2;ratioP2;P2;SDS_P1;SDS_P2;PMS_P1;PMS_P2;Temp;Humidity;BMP_temperature;BMP_pressure;BME280_temperature;BME280_humidity;BME280_pressure;Samples;Min_cycle;Max_cycle;Signal;HPM_P1;HPM_P2
2022/12/16 00:01:08;;;;;;;11.52;10.63;;;;;;;2.83;73.37;101199.45;465591;114;922735;-78
2022/12/16 00:02:11;;;;;;;11.11;10.07;;;;;;;2.80;73.20;101208.70;464849;114;922687;-77
2022/12/16 00:03:14;;;;;;;11.56;10.51;;;;;;;2.80;73.20;101208.70;465558;114;922491;-79
2022/12/16 00:04:17;;;;;;;11.00;10.20;;;;;;;2.80;73.30;101206.01;465543;114;922614;-76
2022/12/16 00:05:20;;;;;;;12.15;11.08;;;;;;;2.80;73.34;101210.55;465553;113;922456;-79
2022/12/16 00:06:26;;;;;;;13.01;11.81;;;;;;;2.79;73.17;101219.61;465523;114;922946;-79
2022/12/16 00:07:29;;;;;;;11.76;10.86;;;;;;;2.78;73.14;101218.77;465423;114;922998;-77
2022/12/16 00:08:34;;;;;;;11.17;10.27;;;;;;;2.76;73.12;101226.13;465504;114;922695;-78
2022/12/16 00:09:37;;;;;;;11.77;10.87;;;;;;;2.75;73.25;101221.77;465427;114;923083;-78
2022/12/16 00:10:52;;;;;;;11.28;10.43;;;;;;;2.75;73.15;101227.16;465553;114;922501;-78
2022/12/16 00:11:57;;;;;;;11.17;10.40;;;;;;;2.76;73.19;101233.36;465365;114;922556;-79
2022/12/16 00:13:00;;;;;;;11.91;11.05;;;;;;;2.76;73.34;101236.91;465578;114;922468;-78
2022/12/16 00:14:05;;;;;;;11.98;11.03;;;;;;;2.76;73.33;101236.05;465219;114;922440;-78
2022/12/16 00:15:08;;;;;;;11.86;10.78;;;;;;;2.77;73.27;101235.91;455997;115;923165;-77
2022/12/16 00:16:14;;;;;;;11.81;10.91;;;;;;;2.76;73.30;101234.20;456374;114;923061;-77
2022/12/16 00:17:17;;;;;;;11.11;10.27;;;;;;;2.76;73.21;101241.44;465294;114;930284;-78
2022/12/16 00:18:20;;;;;;;10.52;9.68;;;;;;;2.75;73.23;101240.61;465583;113;922947;-78
2022/12/16 00:19:23;;;;;;;10.27;9.56;;;;;;;2.76;73.23;101241.44;465565;114;922578;-78
2022/12/16 00:20:26;;;;;;;11.29;10.49;;;;;;;2.75;73.08;101242.45;455975;116;922526;-78
2022/12/16 00:21:29;;;;;;;11.00;10.09;;;;;;;2.73;73.22;101247.13;456224;114;922526;-78
2022/12/16 00:22:32;;;;;;;11.17;10.21;;;;;;;2.70;73.14;101232.11;465560;114;923274;-79
2022/12/16 00:23:37;;;;;;;11.05;10.15;;;;;;;2.70;73.15;101244.75;465566;113;922514;-76
2022/12/16 00:24:40;;;;;;;11.00;10.14;;;;;;;2.69;73.14;101240.35;465385;114;922654;-78
2022/12/16 00:25:44;;;;;;;11.66;10.78;;;;;;;2.67;73.25;101242.33;465614;114;922521;-78
2022/12/16 00:26:47;;;;;;;10.95;10.06;;;;;;;2.67;73.29;101245.02;465494;114;922543;-78
2022/12/16 00:27:50;;;;;;;11.29;10.39;;;;;;;2.65;73.30;101247.86;465631;113;922551;-79
2022/12/16 00:28:55;;;;;;;11.47;10.53;;;;;;;2.66;73.35;101238.79;465436;114;922926;-78
2022/12/16 00:29:59;;;;;;;10.23;9.44;;;;;;;2.67;73.32;101256.65;466611;114;922088;-77
2022/12/16 00:31:02;;;;;;;10.53;9.73;;;;;;;2.68;73.41;101260.19;466725;112;930043;-77
2022/12/16 00:32:05;;;;;;;11.17;10.37;;;;;;;2.67;73.19;101255.80;466693;114;922067;-78
2022/12/16 00:33:08;;;;;;;11.57;10.66;;;;;;;2.67;73.23;101269.26;465534;113;922083;-78
2022/12/16 00:34:11;;;;;;;11.75;10.91;;;;;;;2.64;73.01;101272.26;465025;114;922493;-78
2022/12/16 00:35:14;;;;;;;10.97;10.17;;;;;;;2.61;72.97;101278.77;464956;114;922235;-78
2022/12/16 00:36:17;;;;;;;11.04;10.14;;;;;;;2.57;72.98;101282.76;464727;114;922497;-78
2022/12/16 00:37:20;;;;;;;10.82;9.99;;;;;;;2.56;73.11;101282.89;456202;116;922420;-78
2022/12/16 00:38:25;;;;;;;10.83;10.06;;;;;;;2.54;73.14;101285.72;456541;114;922183;-78
2022/12/16 00:39:28;;;;;;;10.69;9.95;;;;;;;2.53;73.09;101285.89;464785;114;922023;-79
2022/12/16 00:40:31;;;;;;;10.61;9.81;;;;;;;2.51;73.22;101288.72;464868;114;921996;-78
2022/12/16 00:41:34;;;;;;;10.56;9.76;;;;;;;2.53;73.30;101286.74;464850;114;922091;-78
2022/12/16 00:42:37;;;;;;;10.90;9.94;;;;;;;2.53;73.31;101280.51;464956;114;922399;-79
2022/12/16 00:43:39;;;;;;;10.38;9.58;;;;;;;2.55;73.30;101278.50;464921;114;922193;-78
2022/12/16 00:44:42;;;;;;;9.71;9.01;;;;;;;2.55;73.38;101270.42;464884;114;922893;-80
2022/12/16 00:45:46;;;;;;;10.53;9.74;;;;;;;2.56;73.42;101264.91;456125;116;922124;-78
2022/12/16 00:46:49;;;;;;;11.00;10.18;;;;;;;2.56;73.48;101259.52;456556;114;922317;-78
2022/12/16 00:47:52;;;;;;;10.93;10.13;;;;;;;2.59;73.66;101259.25;464916;114;922366;-79
2022/12/16 00:48:55;;;;;;;10.81;9.91;;;;;;;2.60;73.67;101258.22;464882;114;922325;-78
2022/12/16 00:49:58;;;;;;;11.60;10.64;;;;;;;2.60;73.69;101255.53;464877;114;922236;-76
2022/12/16 00:51:02;;;;;;;11.88;10.83;;;;;;;2.63;73.65;101263.33;464094;114;922455;-78
2022/12/16 00:52:05;;;;;;;11.58;10.71;;;;;;;2.65;73.68;101265.85;464073;114;923923;-79
2022/12/16 00:53:08;;;;;;;11.39;10.51;;;;;;;2.65;73.68;101264.01;463989;114;922525;-77
2022/12/16 00:54:11;;;;;;;11.33;10.43;;;;;;;2.67;73.80;101261.18;463957;114;922466;-78
2022/12/16 00:55:14;;;;;;;10.52;9.79;;;;;;;2.68;73.70;101269.12;464062;114;922468;-79
2022/12/16 00:56:17;;;;;;;11.64;10.74;;;;;;;2.69;73.85;101268.13;463946;114;922766;-78
2022/12/16 00:57:21;;;;;;;11.89;10.96;;;;;;;2.70;73.72;101267.11;463876;114;930149;-78
2022/12/16 00:58:24;;;;;;;11.09;10.33;;;;;;;2.73;73.73;101271.36;462304;114;922812;-80
2022/12/16 00:59:27;;;;;;;11.41;10.53;;;;;;;2.73;73.67;101274.91;455796;116;930073;-79
2022/12/16 01:00:30;;;;;;;11.55;10.69;;;;;;;2.75;73.66;101278.31;455872;116;922880;-78
2022/12/16 01:01:33;;;;;;;11.23;10.32;;;;;;;2.76;73.64;101279.98;455738;116;923105;-77
2022/12/16 01:02:37;;;;;;;11.59;10.34;;;;;;;2.76;73.73;101279.98;455817;116;930019;-77
2022/12/16 01:03:40;;;;;;;11.58;10.73;;;;;;;2.77;73.60;101275.45;455784;116;922442;-78
2022/12/16 01:04:44;;;;;;;12.14;11.02;;;;;;;2.77;73.56;101281.69;455772;116;922852;-77
2022/12/16 01:05:48;;;;;;;11.58;10.61;;;;;;;2.78;73.62;101283.39;455857;116;922606;-77
2022/12/16 01:06:51;;;;;;;11.22;10.39;;;;;;;2.79;73.76;101273.47;440534;120;924772;-77
2022/12/16 01:07:54;;;;;;;10.59;9.71;;;;;;;2.79;73.74;101279.70;449887;116;930064;-77
2022/12/16 01:08:57;;;;;;;11.67;10.86;;;;;;;2.79;73.64;101285.09;455820;116;922641;-78
2022/12/16 01:10:02;;;;;;;11.79;10.81;;;;;;;2.81;73.64;101277.70;455823;116;922566;-77
2022/12/16 01:11:05;;;;;;;12.03;11.12;;;;;;;2.81;73.62;101280.39;455563;116;922450;-78
2022/12/16 01:12:08;;;;;;;10.92;10.07;;;;;;;2.82;73.60;101278.55;455607;116;930253;-76
2022/12/16 01:13:11;;;;;;;10.93;10.03;;;;;;;2.83;73.64;101275.72;455717;116;922461;-78
2022/12/16 01:14:14;;;;;;;10.84;9.94;;;;;;;2.84;73.63;101272.03;447368;118;922590;-79
2022/12/16 01:15:18;;;;;;;11.53;10.63;;;;;;;2.84;73.63;101269.34;447786;116;922603;-78
2022/12/16 01:16:21;;;;;;;10.88;10.11;;;;;;;2.85;73.62;101270.19;455668;116;922578;-77
2022/12/16 01:17:24;;;;;;;11.28;10.38;;;;;;;2.86;73.70;101271.89;455673;116;922891;-77
2022/12/16 01:18:27;;;;;;;11.18;10.25;;;;;;;2.85;73.56;101265.66;455689;116;930476;-77
2022/12/16 01:19:30;;;;;;;10.78;9.86;;;;;;;2.85;73.70;101257.58;455733;116;922581;-78
2022/12/16 01:20:34;;;;;;;10.28;9.52;;;;;;;2.85;73.58;101259.42;455703;116;922609;-79
2022/12/16 01:21:37;;;;;;;10.94;10.11;;;;;;;2.83;73.63;101259.55;455734;116;922565;-78
2022/12/16 01:22:41;;;;;;;10.45;9.68;;;;;;;2.82;73.67;101260.55;455639;116;922592;-79
2022/12/16 01:23:44;;;;;;;10.02;9.23;;;;;;;2.81;73.68;101261.54;455752;116;922482;-77
2022/12/16 01:24:47;;;;;;;11.41;10.35;;;;;;;2.81;73.60;101261.54;455673;116;922596;-78
2022/12/16 01:25:54;;;;;;;11.14;10.27;;;;;;;2.79;73.76;101258.16;455616;116;923233;-79
2022/12/16 01:26:57;;;;;;;10.79;9.88;;;;;;;2.79;73.78;101254.63;455511;116;930067;-77
2022/12/16 01:28:00;;;;;;;10.74;9.96;;;;;;;2.77;73.71;101260.14;455788;116;922569;-78
2022/12/16 01:29:04;;;;;;;9.70;9.04;;;;;;;2.75;73.70;101256.77;455705;116;922509;-77
2022/12/16 01:30:09;;;;;;;11.54;10.54;;;;;;;2.73;73.86;101253.37;455697;116;922468;-78
2022/12/16 01:31:15;;;;;;;11.27;10.38;;;;;;;2.73;73.94;101258.75;455552;116;923142;-78
2022/12/16 01:32:19;;;;;;;10.62;9.86;;;;;;;2.72;73.85;101264.28;455513;116;923507;-78
2022/12/16 01:33:22;;;;;;;10.53;9.70;;;;;;;2.71;73.96;101274.20;456431;116;922573;-76
2022/12/16 01:34:25;;;;;;;10.49;9.69;;;;;;;2.71;74.03;101273.34;457373;116;930580;-79
2022/12/16 01:35:28;;;;;;;10.35;9.54;;;;;;;2.70;73.94;101269.80;457410;116;930426;-78
2022/12/16 01:36:33;;;;;;;11.24;10.34;;;;;;;2.69;73.90;101270.83;457267;116;922922;-77
2022/12/16 01:37:37;;;;;;;10.36;9.63;;;;;;;2.68;73.93;101265.58;457502;116;922555;-77
2022/12/16 01:38:41;;;;;;;10.79;9.98;;;;;;;2.68;74.08;101273.66;457508;116;922503;-78
2022/12/16 01:39:44;;;;;;;10.82;9.92;;;;;;;2.66;74.14;101267.55;457398;116;922834;-78
2022/12/16 01:40:47;;;;;;;10.53;9.70;;;;;;;2.65;74.05;101261.31;457437;116;930237;-77
2022/12/16 01:41:50;;;;;;;10.14;9.44;;;;;;;2.63;74.04;101266.02;457491;116;922628;-77
2022/12/16 01:42:54;;;;;;;11.35;10.35;;;;;;;2.61;74.15;101259.92;457476;116;922621;-79
2022/12/16 01:44:19;;;;;;;11.02;10.10;;;;;;;2.60;74.09;101263.61;457493;116;922521;-78
2022/12/16 01:45:32;;;;;;;12.16;11.17;;;;;;;2.58;74.22;101260.23;456730;116;922832;-77
2022/12/16 01:46:37;;;;;;;10.68;9.78;;;;;;;2.55;74.14;101260.51;457291;116;922566;-78
2022/12/16 01:47:40;;;;;;;11.20;10.40;;;;;;;2.54;74.20;101260.68;457311;116;922959;-76
2022/12/16 01:49:02;;;;;;;11.42;10.61;;;;;;;2.52;74.20;101266.20;457566;116;922573;-77
2022/12/16 01:50:09;;;;;;;10.72;9.94;;;;;;;2.51;74.21;101262.66;457326;116;922586;-78
2022/12/16 01:51:27;;;;;;;10.19;9.49;;;;;;;2.48;74.23;101259.42;457260;116;922531;-78
2022/12/16 01:52:37;;;;;;;11.31;10.44;;;;;;;2.45;74.39;101265.93;457319;116;922530;-78
2022/12/16 01:53:41;;;;;;;12.03;11.03;;;;;;;2.43;74.38;101261.67;457319;116;922538;-77
2022/12/16 01:54:48;;;;;;;11.44;10.64;;;;;;;2.40;74.30;101262.83;457351;116;922504;-78
2022/12/16 01:55:53;;;;;;;10.99;10.09;;;;;;;2.38;74.44;101259.42;456960;116;927397;-78
2022/12/16 01:57:00;;;;;;;11.74;10.82;;;;;;;2.37;74.39;101268.48;457354;116;922928;-77
2022/12/16 01:58:07;;;;;;;10.39;9.64;;;;;;;2.36;74.53;101265.96;457318;116;923174;-78
2022/12/16 01:59:14;;;;;;;11.39;10.52;;;;;;;2.35;74.36;101265.11;456908;116;922439;-78
2022/12/16 02:00:17;;;;;;;11.51;10.56;;;;;;;2.34;74.46;101263.41;457359;116;922605;-77
2022/12/16 02:01:21;;;;;;;11.54;10.51;;;;;;;2.33;74.42;101261.70;448968;118;922589;-78
2022/12/16 02:02:24;;;;;;;11.42;10.53;;;;;;;2.31;74.55;101261.02;457544;116;922536;-77
2022/12/16 02:03:31;;;;;;;11.66;10.64;;;;;;;2.29;74.49;101265.69;448853;118;922481;-77
2022/12/16 02:04:34;;;;;;;11.24;10.32;;;;;;;2.28;74.63;101266.67;457497;116;922589;-78
2022/12/16 02:05:40;;;;;;;10.83;9.81;;;;;;;2.27;74.57;101267.66;449072;118;923467;-78
2022/12/16 02:06:43;;;;;;;11.78;10.88;;;;;;;2.26;74.59;101265.14;457547;116;922943;-78
2022/12/16 02:08:11;;;;;;;11.69;10.78;;;;;;;2.25;74.62;101263.44;457741;116;922445;-77
2022/12/16 02:09:16;;;;;;;11.27;10.16;;;;;;;2.24;74.64;101262.58;448923;118;922871;-78
2022/12/16 02:10:23;;;;;;;11.28;10.41;;;;;;;2.23;74.71;101271.64;457385;116;922486;-76
2022/12/16 02:11:49;;;;;;;11.03;10.19;;;;;;;2.22;74.81;101269.09;457283;116;922600;-77
2022/12/16 02:13:02;;;;;;;10.88;10.04;;;;;;;2.20;74.76;101274.63;457219;116;922536;-79
2022/12/16 02:14:28;;;;;;;11.63;10.72;;;;;;;2.19;74.74;101285.53;448377;118;922570;-76
2022/12/16 02:15:40;;;;;;;10.88;9.99;;;;;;;2.16;74.96;101283.96;439549;120;923149;-78
2022/12/16 02:16:47;;;;;;;11.26;10.31;;;;;;;2.15;75.02;101290.33;439465;120;922747;-76
2022/12/16 02:18:05;;;;;;;11.44;10.54;;;;;;;2.14;75.02;101287.80;455205;116;922524;-77
2022/12/16 02:19:15;;;;;;;11.09;10.32;;;;;;;2.13;75.15;101291.48;456988;116;922589;-78
2022/12/16 02:20:38;;;;;;;10.42;9.68;;;;;;;2.14;75.26;101285.11;455286;116;922533;-76
2022/12/16 02:21:51;;;;;;;10.54;9.67;;;;;;;2.15;75.18;101287.64;457289;116;922451;-77
2022/12/16 02:23:20;;;;;;;10.94;9.98;;;;;;;2.16;75.21;101285.80;457015;116;922603;-78
2022/12/16 02:24:44;;;;;;;10.76;10.03;;;;;;;2.16;75.32;101289.34;457297;116;922557;-77
2022/12/16 02:26:02;;;;;;;11.74;10.84;;;;;;;2.19;75.38;101290.91;457348;115;923046;-77
2022/12/16 02:27:23;;;;;;;10.67;9.81;;;;;;;2.21;75.48;101299.66;457329;116;923530;-79
2022/12/16 02:28:33;;;;;;;11.26;10.47;;;;;;;2.23;75.62;101297.69;455966;116;922601;-78
2022/12/16 02:29:45;;;;;;;11.28;10.48;;;;;;;2.26;75.52;101305.49;457386;116;922498;-78
2022/12/16 02:31:00;;;;;;;11.41;10.59;;;;;;;2.27;75.66;101308.02;457338;116;922508;-78
2022/12/16 02:32:10;;;;;;;11.71;10.75;;;;;;;2.30;75.60;101301.52;457397;116;922556;-77
2022/12/16 02:33:25;;;;;;;11.09;10.33;;;;;;;2.31;75.61;101301.38;457010;116;922583;-78
2022/12/16 02:34:38;;;;;;;11.48;10.61;;;;;;;2.34;75.55;101290.31;456457;116;922505;-79
2022/12/16 02:35:50;;;;;;;10.84;10.01;;;;;;;2.36;75.66;101307.17;456451;116;922482;-78
2022/12/16 02:37:07;;;;;;;9.92;9.17;;;;;;;2.37;75.56;101303.47;445893;118;922536;-78
2022/12/16 02:38:20;;;;;;;11.18;10.33;;;;;;;2.38;75.55;101305.17;456752;116;922491;-76
2022/12/16 02:39:33;;;;;;;11.63;10.72;;;;;;;2.39;75.45;101306.88;448720;118;922589;-79
2022/12/16 02:40:48;;;;;;;10.86;9.97;;;;;;;2.40;75.44;101305.03;457109;115;922686;-78
2022/12/16 02:42:04;;;;;;;10.68;9.89;;;;;;;2.39;75.31;101297.95;457334;116;922515;-78
2022/12/16 02:43:10;;;;;;;11.18;10.36;;;;;;;2.40;75.36;101297.81;456370;116;922647;-78
2022/12/16 02:44:17;;;;;;;10.69;9.89;;;;;;;2.40;75.45;101287.05;456957;116;922387;-77
2022/12/16 02:45:23;;;;;;;11.19;10.31;;;;;;;2.42;75.38;101289.60;457261;116;922541;-78
2022/12/16 02:46:29;;;;;;;10.52;9.72;;;;;;;2.44;75.33;101293.83;448562;118;922911;-79
2022/12/16 02:47:32;;;;;;;11.15;10.35;;;;;;;2.44;75.43;101296.52;457298;116;922537;-78
2022/12/16 02:48:35;;;;;;;10.72;9.92;;;;;;;2.46;75.26;101299.92;457485;116;922546;-79
2022/12/16 02:49:42;;;;;;;10.37;9.54;;;;;;;2.47;75.34;101304.33;457488;116;922901;-77
2022/12/16 02:50:49;;;;;;;10.69;9.89;;;;;;;2.50;75.12;101303.17;456871;116;922555;-77
2022/12/16 02:51:53;;;;;;;10.49;9.71;;;;;;;2.51;75.08;101304.87;457255;116;922862;-78
2022/12/16 02:52:59;;;;;;;10.06;9.33;;;;;;;2.51;75.11;101303.03;457511;116;922584;-78
2022/12/16 02:54:03;;;;;;;9.37;8.69;;;;;;;2.50;75.10;101295.94;457518;116;922517;-77
2022/12/16 02:55:08;;;;;;;10.19;9.46;;;;;;;2.51;75.07;101294.95;457572;116;922475;-79
2022/12/16 02:56:33;;;;;;;10.83;10.03;;;;;;;2.54;75.04;101290.28;457482;115;922576;-78
2022/12/16 02:57:51;;;;;;;9.97;9.26;;;;;;;2.56;75.03;101289.12;456581;116;922322;-78
2022/12/16 02:59:10;;;;;;;9.69;9.01;;;;;;;2.58;75.08;101294.37;457338;112;922595;-78
2022/12/16 03:00:16;;;;;;;9.29;8.59;;;;;;;2.56;75.05;101299.05;457284;116;922507;-77
2022/12/16 03:01:39;;;;;;;10.86;10.02;;;;;;;2.58;74.85;101307.84;457234;116;922601;-78
2022/12/16 03:03:07;;;;;;;9.37;8.69;;;;;;;2.56;75.06;101302.59;457189;116;923104;-78
2022/12/16 03:04:17;;;;;;;10.34;9.59;;;;;;;2.58;74.92;101306.00;457271;116;922540;-76
2022/12/16 03:05:26;;;;;;;10.56;9.61;;;;;;;2.58;75.07;101300.61;457246;116;922509;-79
2022/12/16 03:06:32;;;;;;;9.61;8.91;;;;;;;2.59;75.08;101301.46;457342;116;922476;-78
2022/12/16 03:07:40;;;;;;;9.71;8.98;;;;;;;2.59;74.95;101298.77;457310;116;922651;-79
2022/12/16 03:08:46;;;;;;;10.24;9.47;;;;;;;2.60;75.03;101295.91;457325;116;922483;-78
2022/12/16 03:09:52;;;;;;;9.93;9.27;;;;;;;2.62;75.09;101293.08;457295;116;922927;-78
2022/12/16 03:10:58;;;;;;;10.68;9.89;;;;;;;2.63;74.92;101286.70;457284;116;923054;-77
2022/12/16 03:12:05;;;;;;;10.41;9.71;;;;;;;2.63;74.95;101295.64;457298;116;922845;-78
2022/12/16 03:13:10;;;;;;;10.22;9.48;;;;;;;2.62;74.80;101291.24;457343;116;922653;-78
2022/12/16 03:14:17;;;;;;;10.09;9.39;;;;;;;2.63;74.71;101294.78;457253;116;922575;-78
2022/12/16 03:15:24;;;;;;;10.62;9.84;;;;;;;2.63;74.66;101301.02;457288;116;922828;-78
2022/12/16 03:16:30;;;;;;;9.95;9.25;;;;;;;2.62;74.67;101299.31;457301;116;922585;-77
2022/12/16 03:17:34;;;;;;;9.95;9.19;;;;;;;2.63;74.62;101301.02;457333;116;922537;-78
2022/12/16 03:18:44;;;;;;;9.83;9.14;;;;;;;2.64;74.63;101299.18;457409;116;922557;-78
2022/12/16 03:19:50;;;;;;;10.42;9.62;;;;;;;2.64;74.60;101302.72;457296;116;922528;-77
2022/12/16 03:21:00;;;;;;;10.55;9.84;;;;;;;2.65;74.52;101300.85;457262;116;922539;-78
2022/12/16 03:22:09;;;;;;;9.91;9.21;;;;;;;2.64;74.52;101296.48;457309;116;922558;-78
2022/12/16 03:23:15;;;;;;;9.48;8.76;;;;;;;2.63;74.56;101300.17;457348;116;922814;-78
2022/12/16 03:24:18;;;;;;;9.43;8.63;;;;;;;2.64;74.59;101296.48;457361;116;922803;-77
2022/12/16 03:25:22;;;;;;;10.41;9.71;;;;;;;2.65;74.68;101295.47;457511;115;922496;-79
2022/12/16 03:26:47;;;;;;;10.01;8.99;;;;;;;2.65;74.63;101290.94;457620;116;922329;-77
2022/12/16 03:27:57;;;;;;;8.92;8.26;;;;;;;2.65;74.50;101290.94;455852;116;922593;-78
2022/12/16 03:29:06;;;;;;;10.23;9.49;;;;;;;2.65;74.44;101280.16;457845;116;922352;-79
2022/12/16 03:30:22;;;;;;;9.97;9.17;;;;;;;2.66;74.44;101278.33;458091;116;922390;-78
2022/12/16 03:31:41;;;;;;;10.33;9.62;;;;;;;2.66;74.51;101270.25;457467;116;922418;-78
2022/12/16 03:32:47;;;;;;;10.18;9.43;;;;;;;2.66;74.51;101270.25;457684;116;922649;-78
2022/12/16 03:33:57;;;;;;;11.10;10.24;;;;;;;2.65;74.42;101277.47;457195;116;922948;-77
2022/12/16 03:35:03;;;;;;;10.12;9.43;;;;;;;2.65;74.38;101273.92;457242;116;922455;-78
2022/12/16 03:36:10;;;;;;;11.87;10.90;;;;;;;2.64;74.36;101280.33;456595;116;922589;-76
2022/12/16 03:37:14;;;;;;;10.92;10.11;;;;;;;2.62;74.34;101275.09;457269;116;922704;-78
2022/12/16 03:38:18;;;;;;;10.23;9.43;;;;;;;2.62;74.33;101280.47;457419;116;922660;-79
2022/12/16 03:39:25;;;;;;;10.59;9.82;;;;;;;2.62;74.33;101285.00;457275;116;930475;-76
2022/12/16 03:40:30;;;;;;;10.12;9.42;;;;;;;2.61;74.36;101285.99;457283;116;922519;-78
2022/12/16 03:41:34;;;;;;;11.56;10.71;;;;;;;2.61;74.36;101294.92;457385;115;922438;-78
2022/12/16 03:42:39;;;;;;;10.80;9.97;;;;;;;2.61;74.36;101300.30;457825;115;922795;-78
2022/12/16 03:43:42;;;;;;;10.81;9.98;;;;;;;2.62;74.25;101304.70;458097;116;922334;-77
2022/12/16 03:44:46;;;;;;;10.43;9.63;;;;;;;2.62;74.20;101302.02;458279;116;922278;-77
2022/12/16 03:45:53;;;;;;;11.34;10.46;;;;;;;2.63;74.28;101301.02;457810;116;930831;-78
2022/12/16 03:46:57;;;;;;;10.37;9.59;;;;;;;2.62;74.21;101299.31;458105;116;922256;-77
2022/12/16 03:47:59;;;;;;;10.68;9.93;;;;;;;;;;458174;116;922251;-78
2022/12/16 03:49:02;;;;;;;9.83;9.13;;;;;;;2.62;74.14;101291.24;458113;116;930450;-78
2022/12/16 03:50:06;;;;;;;10.53;9.71;;;;;;;2.61;74.09;101286.84;458063;116;930208;-77
2022/12/16 03:51:09;;;;;;;10.51;9.71;;;;;;;2.61;74.11;101284.16;458007;116;922325;-76
2022/12/16 03:52:12;;;;;;;11.08;10.28;;;;;;;2.62;74.17;101285.86;458156;115;930166;-78
2022/12/16 03:53:15;;;;;;;10.52;9.72;;;;;;;2.63;74.19;101286.70;458258;116;922282;-78
2022/12/16 03:54:18;;;;;;;10.88;10.11;;;;;;;2.63;74.21;101287.56;458208;116;922386;-77
2022/12/16 03:55:21;;;;;;;10.49;9.63;;;;;;;2.65;74.24;101284.70;458282;116;922303;-78
2022/12/16 03:56:24;;;;;;;10.30;9.52;;;;;;;2.65;74.33;101296.31;458280;116;922357;-77
2022/12/16 03:57:27;;;;;;;10.20;9.46;;;;;;;2.67;74.18;101294.34;458377;115;922860;-77
2022/12/16 03:58:30;;;;;;;10.51;9.75;;;;;;;2.68;74.12;101296.05;458285;114;922586;-76
2022/12/16 03:59:33;;;;;;;9.94;9.24;;;;;;;2.68;74.12;101293.35;458352;116;922853;-79
2022/12/16 04:00:36;;;;;;;10.28;9.56;;;;;;;2.69;74.11;101288.82;458296;116;922348;-78
2022/12/16 04:01:40;;;;;;;10.04;9.34;;;;;;;2.69;74.19;101289.67;458255;116;922388;-79
2022/12/16 04:02:43;;;;;;;9.83;9.06;;;;;;;2.70;74.08;101290.52;458151;116;922314;-78
2022/12/16 04:03:47;;;;;;;10.69;9.94;;;;;;;2.71;74.06;101279.58;457662;116;922834;-79
2022/12/16 04:04:50;;;;;;;10.99;10.17;;;;;;;2.72;74.07;101281.28;457469;116;922521;-76
2022/12/16 04:05:53;;;;;;;10.49;9.74;;;;;;;2.72;73.99;101285.81;457507;116;922429;-78
2022/12/16 04:08:18;;;;;;;10.84;10.07;;;;;;;2.71;73.97;101289.50;455753;116;922741;-78
2022/12/16 04:09:21;;;;;;;10.95;10.15;;;;;;;2.69;73.98;101286.98;456025;116;922879;-78
2022/12/16 04:24:18;;;;;;;11.62;10.71;;;;;;;2.66;74.25;101310.63;448706;117;922223;-76
2022/12/16 04:25:24;;;;;;;11.33;10.38;;;;;;;2.64;74.39;101316.19;457483;116;922566;-76
2022/12/16 04:26:27;;;;;;;11.11;10.34;;;;;;;2.62;74.31;101310.09;456962;116;922499;-79
2022/12/16 04:27:30;;;;;;;12.00;11.04;;;;;;;2.62;74.32;101314.62;457560;116;922882;-78
2022/12/16 04:28:33;;;;;;;10.66;9.86;;;;;;;2.61;74.45;101321.84;455775;116;923009;-79
2022/12/16 04:30:17;;;;;;;11.20;10.40;;;;;;;2.63;74.34;101321.70;456022;116;922571;-79
2022/12/16 04:30:41;;;;;;;11.86;11.03;;;;;;;2.63;74.30;101322.56;456737;116;922486;-77
2022/12/16 04:31:45;;;;;;;11.92;10.89;;;;;;;2.65;74.29;101325.08;457515;116;922783;-77
2022/12/16 04:34:25;;;;;;;;;;;;;;;2.64;74.17;101332.34;462429;114;922246;-76
